createdAt,value
2022-10-01T00:00:17.130Z,9.85
2022-10-01T00:01:19.746Z,9.83
2022-10-01T00:02:22.056Z,9.81
2022-10-01T00:03:26.405Z,9.81
2022-10-01T00:04:28.655Z,9.78
2022-10-01T00:05:30.825Z,9.76
2022-10-01T00:06:32.986Z,9.74
2022-10-01T00:07:44.148Z,9.73
2022-10-01T00:08:49.245Z,9.70
2022-10-01T00:09:51.610Z,9.70
2022-10-01T00:10:53.856Z,9.67
2022-10-01T00:11:56.746Z,9.67
2022-10-01T00:12:59.081Z,9.65
2022-10-01T00:14:01.979Z,9.61
2022-10-01T00:15:10.698Z,9.60
2022-10-01T00:16:18.494Z,9.61
2022-10-01T00:17:20.663Z,9.60
2022-10-01T00:18:23.232Z,9.58
2022-10-01T00:19:25.711Z,9.58
2022-10-01T00:20:28.028Z,9.55
2022-10-01T00:21:33.150Z,9.54
2022-10-01T00:22:39.122Z,9.54
2022-10-01T00:23:45.476Z,9.52
2022-10-01T00:24:47.917Z,9.49
2022-10-01T00:25:52.706Z,9.49
2022-10-01T00:26:54.898Z,9.46
2022-10-01T00:27:57.117Z,9.46
2022-10-01T00:29:02.349Z,9.46
2022-10-01T00:30:06.665Z,9.43
2022-10-01T00:31:10.394Z,9.43
2022-10-01T00:32:13.332Z,9.41
2022-10-01T00:33:15.521Z,9.42
2022-10-01T00:34:17.679Z,9.37
2022-10-01T00:35:20.039Z,9.35
2022-10-01T00:36:22.735Z,9.35
2022-10-01T00:37:25.041Z,9.35
2022-10-01T00:38:29.689Z,9.33
2022-10-01T00:39:31.903Z,9.32
2022-10-01T00:40:34.081Z,9.30
2022-10-01T00:41:36.496Z,9.28
2022-10-01T00:42:39.224Z,9.27
2022-10-01T00:43:47.430Z,9.28
2022-10-01T00:44:50.458Z,9.25
2022-10-01T00:45:58.425Z,9.24
2022-10-01T00:47:13.953Z,9.25
2022-10-01T00:48:16.821Z,9.21
2022-10-01T00:49:24.409Z,9.23
2022-10-01T00:50:33.698Z,9.20
2022-10-01T00:51:43.298Z,9.18
2022-10-01T00:52:52.507Z,9.17
2022-10-01T00:54:03.945Z,9.14
2022-10-01T00:55:18.358Z,9.13
2022-10-01T00:56:20.835Z,9.14
2022-10-01T00:57:26.634Z,9.12
2022-10-01T00:58:30.441Z,9.11
2022-10-01T00:59:33.940Z,9.10
2022-10-01T01:00:38.258Z,9.10
2022-10-01T01:01:40.434Z,9.08
2022-10-01T01:02:42.754Z,9.06
2022-10-01T01:03:45.051Z,9.03
2022-10-01T01:04:48.747Z,9.03
2022-10-01T01:05:50.946Z,9.03
2022-10-01T01:06:57.832Z,9.03
2022-10-01T01:08:03.018Z,9.02
2022-10-01T01:09:05.279Z,9.00
2022-10-01T01:10:08.496Z,8.99
2022-10-01T01:11:21.563Z,8.99
2022-10-01T01:12:48.788Z,8.95
2022-10-01T01:14:00.865Z,8.94
2022-10-01T01:15:08.042Z,8.94
2022-10-01T01:16:29.304Z,8.94
2022-10-01T01:17:57.609Z,8.90
2022-10-01T01:19:14.449Z,8.90
2022-10-01T01:20:34.832Z,8.90
2022-10-01T01:21:43.248Z,8.84
2022-10-01T01:22:55.686Z,8.82
2022-10-01T01:24:19.960Z,8.80
2022-10-01T01:25:36.736Z,8.81
2022-10-01T01:26:50.662Z,8.78
2022-10-01T01:28:17.583Z,8.76
2022-10-01T01:29:38.679Z,8.73
2022-10-01T01:30:41.482Z,8.71
2022-10-01T01:31:46.862Z,8.70
2022-10-01T01:33:12.043Z,8.69
2022-10-01T01:34:22.027Z,8.69
2022-10-01T01:35:44.224Z,8.67
2022-10-01T01:36:58.676Z,8.64
2022-10-01T01:38:04.984Z,8.60
2022-10-01T01:39:11.579Z,8.60
2022-10-01T01:40:16.593Z,8.58
2022-10-01T01:41:20.967Z,8.58
2022-10-01T01:42:43.162Z,8.55
2022-10-01T01:43:49.747Z,8.52
2022-10-01T01:44:55.033Z,8.52
2022-10-01T01:46:02.223Z,8.52
2022-10-01T01:47:07.520Z,8.51
2022-10-01T01:48:13.256Z,8.49
2022-10-01T01:49:19.619Z,8.47
2022-10-01T01:50:25.870Z,8.47
2022-10-01T01:51:46.237Z,8.46
2022-10-01T01:52:49.445Z,8.44
2022-10-01T01:53:54.001Z,8.45
2022-10-01T01:54:57.690Z,8.44
2022-10-01T01:56:00.498Z,8.43
2022-10-01T01:57:04.613Z,8.42
2022-10-01T01:58:06.875Z,8.41
2022-10-01T01:59:09.542Z,8.40
2022-10-01T02:00:12.836Z,8.39
2022-10-01T02:01:35.351Z,8.38
2022-10-01T02:02:40.485Z,8.37
2022-10-01T02:03:42.994Z,8.35
2022-10-01T02:04:55.066Z,8.35
2022-10-01T02:06:06.686Z,8.33
2022-10-01T02:07:36.797Z,8.33
2022-10-01T02:09:02.697Z,8.32
2022-10-01T02:10:23.895Z,8.30
2022-10-01T02:11:30.767Z,8.29
2022-10-01T02:12:45.168Z,8.29
2022-10-01T02:13:56.731Z,8.26
2022-10-01T02:15:04.880Z,8.26
2022-10-01T02:16:26.208Z,8.25
2022-10-01T02:17:50.994Z,8.24
2022-10-01T02:19:05.357Z,8.24
2022-10-01T02:20:18.580Z,8.22
2022-10-01T02:21:31.634Z,8.22
2022-10-01T02:22:42.172Z,8.22
2022-10-01T02:23:59.081Z,8.20
2022-10-01T02:25:05.187Z,8.19
2022-10-01T02:26:19.361Z,8.18
2022-10-01T02:27:33.444Z,8.18
2022-10-01T02:28:38.656Z,8.18
2022-10-01T02:29:43.513Z,8.17
2022-10-01T02:30:47.780Z,8.18
2022-10-01T02:31:53.564Z,8.17
2022-10-01T02:32:59.443Z,8.18
2022-10-01T02:34:04.588Z,8.16
2022-10-01T02:35:09.694Z,8.15
2022-10-01T02:36:14.110Z,8.15
2022-10-01T02:37:20.771Z,8.14
2022-10-01T02:38:24.948Z,8.14
2022-10-01T02:39:30.453Z,8.14
2022-10-01T02:40:38.176Z,8.13
2022-10-01T02:41:43.228Z,8.14
2022-10-01T02:42:49.758Z,8.14
2022-10-01T02:43:59.059Z,8.14
2022-10-01T02:45:04.512Z,8.13
2022-10-01T02:46:54.757Z,8.11
2022-10-01T02:48:02.345Z,8.11
2022-10-01T02:49:05.035Z,8.10
2022-10-01T02:50:08.479Z,8.09
2022-10-01T02:51:51.271Z,8.09
2022-10-01T02:53:08.934Z,8.08
2022-10-01T02:54:24.654Z,8.04
2022-10-01T02:55:30.846Z,8.05
2022-10-01T02:56:56.140Z,8.03
2022-10-01T02:57:58.658Z,8.00
2022-10-01T02:59:00.862Z,8.00
2022-10-01T03:00:07.750Z,8.01
2022-10-01T03:01:10.004Z,7.98
2022-10-01T03:02:12.483Z,7.98
2022-10-01T03:03:14.908Z,7.96
2022-10-01T03:04:18.382Z,7.93
2022-10-01T03:05:21.827Z,7.94
2022-10-01T03:06:24.067Z,7.94
2022-10-01T03:07:28.173Z,7.91
2022-10-01T03:08:31.646Z,7.91
2022-10-01T03:09:39.065Z,7.91
2022-10-01T03:10:44.705Z,7.90
2022-10-01T03:11:48.893Z,7.89
2022-10-01T03:12:53.462Z,7.89
2022-10-01T03:13:55.776Z,7.89
2022-10-01T03:14:57.916Z,7.88
2022-10-01T03:16:00.173Z,7.88
2022-10-01T03:17:02.657Z,7.87
2022-10-01T03:18:04.835Z,7.89
2022-10-01T03:19:06.997Z,7.88
2022-10-01T03:20:09.482Z,7.88
2022-10-01T03:21:11.982Z,7.87
2022-10-01T03:22:18.294Z,7.87
2022-10-01T03:23:20.543Z,7.86
2022-10-01T03:24:25.904Z,7.85
2022-10-01T03:25:28.063Z,7.85
2022-10-01T03:26:30.497Z,7.83
2022-10-01T03:27:32.667Z,7.84
2022-10-01T03:28:34.834Z,7.83
2022-10-01T03:29:37.026Z,7.83
2022-10-01T03:30:39.252Z,7.82
2022-10-01T03:31:41.555Z,7.82
2022-10-01T03:32:43.820Z,7.80
2022-10-01T03:33:46.390Z,7.79
2022-10-01T03:34:48.670Z,7.79
2022-10-01T03:35:50.863Z,7.80
2022-10-01T03:36:53.122Z,7.77
2022-10-01T03:37:55.337Z,7.78
2022-10-01T03:38:57.782Z,7.77
2022-10-01T03:40:00.181Z,7.76
2022-10-01T03:41:03.660Z,7.75
2022-10-01T03:42:06.070Z,7.72
2022-10-01T03:43:08.304Z,7.70
2022-10-01T03:44:10.586Z,7.71
2022-10-01T03:45:14.022Z,7.69
2022-10-01T03:46:16.460Z,7.70
2022-10-01T03:47:18.741Z,7.70
2022-10-01T03:48:21.301Z,7.69
2022-10-01T03:49:23.737Z,7.69
2022-10-01T03:50:25.936Z,7.70
2022-10-01T03:51:29.585Z,7.68
2022-10-01T03:52:31.742Z,7.69
2022-10-01T03:53:33.998Z,7.70
2022-10-01T03:54:36.223Z,7.71
2022-10-01T03:55:38.442Z,7.71
2022-10-01T03:56:42.738Z,7.70
2022-10-01T03:57:44.942Z,7.70
2022-10-01T03:58:47.142Z,7.70
2022-10-01T03:59:49.317Z,7.71
2022-10-01T04:00:51.863Z,7.70
2022-10-01T04:01:54.741Z,7.72
2022-10-01T04:02:57.056Z,7.69
2022-10-01T04:03:59.424Z,7.70
2022-10-01T04:05:01.672Z,7.72
2022-10-01T04:06:04.269Z,7.71
2022-10-01T04:07:06.465Z,7.71
2022-10-01T04:08:09.077Z,7.69
2022-10-01T04:09:11.343Z,7.70
2022-10-01T04:10:13.966Z,7.69
2022-10-01T04:11:16.261Z,7.69
2022-10-01T04:12:18.996Z,7.69
2022-10-01T04:13:21.434Z,7.71
2022-10-01T04:14:23.712Z,7.71
2022-10-01T04:15:25.995Z,7.71
2022-10-01T04:16:28.543Z,7.71
2022-10-01T04:17:30.785Z,7.71
2022-10-01T04:18:34.267Z,7.73
2022-10-01T04:19:36.476Z,7.73
2022-10-01T04:20:39.010Z,7.75
2022-10-01T04:21:41.727Z,7.73
2022-10-01T04:22:44.717Z,7.75
2022-10-01T04:23:47.085Z,7.76
2022-10-01T04:24:49.267Z,7.75
2022-10-01T04:25:51.583Z,7.75
2022-10-01T04:26:53.812Z,7.75
2022-10-01T04:28:11.187Z,7.73
2022-10-01T04:29:13.404Z,7.76
2022-10-01T04:30:15.728Z,7.77
2022-10-01T04:31:26.893Z,7.78
2022-10-01T04:32:29.260Z,7.77
2022-10-01T04:33:31.500Z,7.78
2022-10-01T04:34:52.338Z,7.78
2022-10-01T04:35:54.513Z,7.79
2022-10-01T04:36:56.706Z,7.77
2022-10-01T04:38:06.603Z,7.77
2022-10-01T04:39:08.862Z,7.77
2022-10-01T04:40:11.549Z,7.77
2022-10-01T04:41:15.152Z,7.75
2022-10-01T04:42:17.363Z,7.75
2022-10-01T04:43:19.554Z,7.77
2022-10-01T04:44:21.739Z,7.77
2022-10-01T04:45:24.109Z,7.77
2022-10-01T04:46:26.620Z,7.78
2022-10-01T04:47:28.810Z,7.78
2022-10-01T04:48:31.223Z,7.77
2022-10-01T04:49:33.683Z,7.77
2022-10-01T04:50:35.876Z,7.77
2022-10-01T04:51:38.068Z,7.78
2022-10-01T04:52:40.293Z,7.77
2022-10-01T04:53:44.895Z,7.77
2022-10-01T04:54:47.237Z,7.75
2022-10-01T04:55:49.429Z,7.73
2022-10-01T04:56:51.640Z,7.73
2022-10-01T04:57:53.997Z,7.73
2022-10-01T04:58:56.227Z,7.75
2022-10-01T04:59:58.422Z,7.75
2022-10-01T05:01:02.180Z,7.73
2022-10-01T05:02:04.729Z,7.73
2022-10-01T05:03:07.236Z,7.73
2022-10-01T05:04:09.495Z,7.75
2022-10-01T05:05:12.183Z,7.74
2022-10-01T05:06:14.432Z,7.73
2022-10-01T05:07:16.741Z,7.75
2022-10-01T05:08:19.014Z,7.76
2022-10-01T05:09:21.164Z,7.76
2022-10-01T05:10:25.052Z,7.77
2022-10-01T05:11:27.517Z,7.76
2022-10-01T05:12:29.780Z,7.77
2022-10-01T05:13:32.099Z,7.77
2022-10-01T05:14:34.395Z,7.78
2022-10-01T05:15:37.008Z,7.78
2022-10-01T05:16:39.262Z,7.77
2022-10-01T05:17:41.651Z,7.80
2022-10-01T05:18:44.046Z,7.79
2022-10-01T05:19:46.666Z,7.79
2022-10-01T05:20:48.911Z,7.80
2022-10-01T05:21:52.033Z,7.81
2022-10-01T05:22:56.478Z,7.81
2022-10-01T05:23:58.678Z,7.80
2022-10-01T05:25:00.969Z,7.81
2022-10-01T05:26:07.606Z,7.82
2022-10-01T05:27:13.485Z,7.83
2022-10-01T05:28:21.306Z,7.83
2022-10-01T05:29:24.752Z,7.85
2022-10-01T05:30:27.065Z,7.85
2022-10-01T05:31:29.509Z,7.85
2022-10-01T05:32:31.899Z,7.86
2022-10-01T05:33:37.299Z,7.88
2022-10-01T05:34:39.868Z,7.89
2022-10-01T05:35:42.436Z,7.90
2022-10-01T05:36:44.658Z,7.90
2022-10-01T05:37:53.881Z,7.91
2022-10-01T05:38:56.189Z,7.92
2022-10-01T05:39:58.462Z,7.93
2022-10-01T05:41:00.642Z,7.94
2022-10-01T05:42:06.315Z,7.95
2022-10-01T05:43:09.272Z,7.96
2022-10-01T05:44:11.464Z,7.98
2022-10-01T05:45:13.854Z,8.00
2022-10-01T05:46:16.074Z,8.03
2022-10-01T05:47:24.858Z,8.05
2022-10-01T05:48:27.147Z,8.07
2022-10-01T05:49:29.323Z,8.11
2022-10-01T05:50:34.661Z,8.13
2022-10-01T05:51:37.206Z,8.15
2022-10-01T05:52:48.456Z,8.17
2022-10-01T05:53:51.022Z,8.19
2022-10-01T05:54:53.217Z,8.21
2022-10-01T05:55:55.437Z,8.20
2022-10-01T05:57:00.697Z,8.24
2022-10-01T05:58:07.667Z,8.26
2022-10-01T05:59:09.906Z,8.27
2022-10-01T06:00:13.798Z,8.30
2022-10-01T06:01:16.079Z,8.31
2022-10-01T06:02:18.405Z,8.33
2022-10-01T06:03:20.778Z,8.34
2022-10-01T06:04:23.000Z,8.36
2022-10-01T06:05:26.144Z,8.36
2022-10-01T06:06:28.431Z,8.39
2022-10-01T06:07:33.442Z,8.38
2022-10-01T06:08:37.163Z,8.41
2022-10-01T06:09:41.932Z,8.41
2022-10-01T06:10:46.975Z,8.41
2022-10-01T06:11:49.397Z,8.44
2022-10-01T06:12:52.103Z,8.44
2022-10-01T06:13:54.475Z,8.44
2022-10-01T06:14:57.041Z,8.44
2022-10-01T06:15:59.337Z,8.48
2022-10-01T06:17:01.711Z,8.48
2022-10-01T06:18:06.063Z,8.50
2022-10-01T06:19:08.584Z,8.50
2022-10-01T06:20:28.695Z,8.52
2022-10-01T06:21:32.371Z,8.53
2022-10-01T06:22:34.817Z,8.54
2022-10-01T06:23:39.540Z,8.55
2022-10-01T06:24:42.627Z,8.56
2022-10-01T06:27:01.506Z,8.54
2022-10-01T06:28:06.032Z,8.58
2022-10-01T06:29:08.320Z,8.57
2022-10-01T06:30:11.022Z,8.59
2022-10-01T06:31:13.254Z,8.61
2022-10-01T06:32:19.806Z,8.62
2022-10-01T06:33:22.070Z,8.65
2022-10-01T06:34:24.293Z,8.65
2022-10-01T06:35:26.713Z,8.65
2022-10-01T06:36:29.023Z,8.66
2022-10-01T06:37:31.239Z,8.68
2022-10-01T06:38:33.480Z,8.69
2022-10-01T06:39:35.748Z,8.68
2022-10-01T06:40:41.805Z,8.71
2022-10-01T06:41:44.103Z,8.72
2022-10-01T06:42:54.879Z,8.74
2022-10-01T06:43:58.910Z,8.74
2022-10-01T06:45:01.096Z,8.74
2022-10-01T06:46:05.165Z,8.76
2022-10-01T06:47:07.427Z,8.75
2022-10-01T06:48:14.758Z,8.77
2022-10-01T06:49:20.621Z,8.79
2022-10-01T06:50:27.398Z,8.79
2022-10-01T06:51:48.021Z,8.81
2022-10-01T06:52:51.113Z,8.83
2022-10-01T06:53:53.733Z,8.83
2022-10-01T06:54:55.936Z,8.84
2022-10-01T06:56:04.167Z,8.86
2022-10-01T06:57:08.697Z,8.86
2022-10-01T06:58:18.126Z,8.88
2022-10-01T06:59:20.324Z,8.88
2022-10-01T07:00:23.281Z,8.92
2022-10-01T07:01:28.047Z,8.92
2022-10-01T07:02:33.390Z,8.94
2022-10-01T07:03:36.114Z,8.93
2022-10-01T07:04:38.474Z,8.94
2022-10-01T07:05:43.348Z,8.97
2022-10-01T07:06:49.547Z,8.98
2022-10-01T07:07:53.746Z,9.00
2022-10-01T07:08:56.584Z,9.02
2022-10-01T07:10:01.939Z,9.03
2022-10-01T07:11:05.199Z,9.01
2022-10-01T07:12:10.654Z,9.02
2022-10-01T07:13:16.503Z,9.06
2022-10-01T07:14:21.697Z,9.07
2022-10-01T07:15:24.052Z,9.10
2022-10-01T07:16:26.268Z,9.10
2022-10-01T07:17:28.779Z,9.13
2022-10-01T07:18:31.295Z,9.14
2022-10-01T07:19:33.506Z,9.16
2022-10-01T07:20:39.833Z,9.19
2022-10-01T07:21:42.078Z,9.21
2022-10-01T07:22:47.470Z,9.23
2022-10-01T07:23:49.746Z,9.23
2022-10-01T07:24:53.584Z,9.27
2022-10-01T07:25:55.789Z,9.29
2022-10-01T07:26:57.969Z,9.31
2022-10-01T07:28:02.773Z,9.31
2022-10-01T07:29:09.277Z,9.33
2022-10-01T07:30:11.770Z,9.34
2022-10-01T07:31:14.239Z,9.36
2022-10-01T07:32:16.747Z,9.36
2022-10-01T07:33:19.183Z,9.39
2022-10-01T07:34:22.359Z,9.41
2022-10-01T07:35:27.368Z,9.43
2022-10-01T07:36:29.575Z,9.45
2022-10-01T07:37:34.378Z,9.46
2022-10-01T07:38:36.959Z,9.47
2022-10-01T07:39:39.264Z,9.48
2022-10-01T07:40:42.069Z,9.49
2022-10-01T07:41:44.281Z,9.52
2022-10-01T07:42:54.796Z,9.52
2022-10-01T07:43:56.978Z,9.53
2022-10-01T07:44:59.174Z,9.56
2022-10-01T07:46:03.601Z,9.57
2022-10-01T07:47:09.240Z,9.56
2022-10-01T07:48:13.917Z,9.58
2022-10-01T07:49:16.932Z,9.61
2022-10-01T07:50:19.193Z,9.63
2022-10-01T07:51:21.574Z,9.66
2022-10-01T07:52:23.902Z,9.66
2022-10-01T07:53:26.283Z,9.69
2022-10-01T07:54:28.696Z,9.71
2022-10-01T07:55:32.892Z,9.72
2022-10-01T07:56:35.455Z,9.74
2022-10-01T07:57:37.628Z,9.74
2022-10-01T07:58:39.876Z,9.76
2022-10-01T07:59:42.296Z,9.79
2022-10-01T08:00:45.068Z,9.80
2022-10-01T08:01:53.821Z,9.82
2022-10-01T08:02:56.326Z,9.83
2022-10-01T08:03:58.612Z,9.86
2022-10-01T08:05:19.156Z,9.87
2022-10-01T08:06:25.330Z,9.92
2022-10-01T08:07:31.976Z,9.95
2022-10-01T08:08:34.203Z,9.98
2022-10-01T08:09:36.497Z,10.00
2022-10-01T08:10:39.198Z,10.02
2022-10-01T08:11:42.032Z,10.07
2022-10-01T08:12:44.892Z,10.10
2022-10-01T08:13:47.613Z,10.11
2022-10-01T08:14:49.937Z,10.15
2022-10-01T08:15:55.972Z,10.18
2022-10-01T08:16:58.471Z,10.21
2022-10-01T08:18:04.171Z,10.24
2022-10-01T08:19:09.528Z,10.27
2022-10-01T08:20:14.158Z,10.31
2022-10-01T08:21:16.395Z,10.35
2022-10-01T08:22:18.577Z,10.38
2022-10-01T08:23:21.698Z,10.41
2022-10-01T08:24:23.880Z,10.41
2022-10-01T08:25:26.199Z,10.43
2022-10-01T08:26:28.785Z,10.45
2022-10-01T08:27:31.117Z,10.48
2022-10-01T08:28:36.184Z,10.50
2022-10-01T08:29:39.428Z,10.53
2022-10-01T08:30:42.941Z,10.55
2022-10-01T08:31:45.159Z,10.58
2022-10-01T08:32:47.797Z,10.62
2022-10-01T08:33:50.923Z,10.63
2022-10-01T08:34:56.759Z,10.64
2022-10-01T08:36:02.996Z,10.67
2022-10-01T08:37:05.476Z,10.69
2022-10-01T08:38:08.191Z,10.72
2022-10-01T08:39:12.494Z,10.74
2022-10-01T08:40:15.746Z,10.76
2022-10-01T08:41:23.381Z,10.77
2022-10-01T08:42:34.573Z,10.80
2022-10-01T08:43:39.233Z,10.82
2022-10-01T08:44:45.536Z,10.83
2022-10-01T08:45:51.725Z,10.86
2022-10-01T08:47:00.932Z,10.87
2022-10-01T08:48:16.792Z,10.88
2022-10-01T08:49:33.267Z,10.91
2022-10-01T08:50:41.743Z,10.93
2022-10-01T08:51:51.154Z,10.95
2022-10-01T08:52:58.429Z,10.98
2022-10-01T08:54:16.053Z,11.00
2022-10-01T08:55:22.978Z,11.01
2022-10-01T08:56:31.220Z,11.03
2022-10-01T08:57:43.516Z,11.05
2022-10-01T08:58:49.935Z,11.08
2022-10-01T08:59:58.089Z,11.10
2022-10-01T09:01:00.595Z,11.13
2022-10-01T09:02:32.633Z,11.15
2022-10-01T09:03:35.179Z,11.18
2022-10-01T09:04:37.489Z,11.21
2022-10-01T09:05:51.672Z,11.23
2022-10-01T09:07:13.605Z,11.25
2022-10-01T09:09:07.001Z,11.29
2022-10-01T09:10:21.709Z,11.33
2022-10-01T09:11:36.552Z,11.36
2022-10-01T09:12:56.555Z,11.39
2022-10-01T09:14:40.175Z,11.43
2022-10-01T09:15:57.500Z,11.46
2022-10-01T09:17:19.418Z,11.49
2022-10-01T09:18:39.114Z,11.51
2022-10-01T09:20:00.954Z,11.55
2022-10-01T09:21:21.781Z,11.57
2022-10-01T09:22:34.220Z,11.59
2022-10-01T09:23:54.658Z,11.63
2022-10-01T09:25:27.605Z,11.66
2022-10-01T09:26:30.211Z,11.68
2022-10-01T09:27:33.748Z,11.71
2022-10-01T09:28:39.720Z,11.74
2022-10-01T09:29:49.678Z,11.75
2022-10-01T09:31:16.047Z,11.79
2022-10-01T09:32:23.276Z,11.82
2022-10-01T09:33:31.654Z,11.87
2022-10-01T09:34:38.127Z,11.90
2022-10-01T09:35:44.307Z,11.94
2022-10-01T09:37:14.916Z,11.98
2022-10-01T09:38:57.415Z,12.04
2022-10-01T09:40:15.868Z,12.09
2022-10-01T09:41:19.299Z,12.12
2022-10-01T09:42:26.404Z,12.14
2022-10-01T09:43:39.911Z,12.18
2022-10-01T09:44:42.866Z,12.23
2022-10-01T09:45:45.107Z,12.25
2022-10-01T09:46:47.522Z,12.29
2022-10-01T09:47:58.420Z,12.32
2022-10-01T09:49:09.040Z,12.35
2022-10-01T09:50:17.990Z,12.39
2022-10-01T09:51:25.321Z,12.42
2022-10-01T09:52:34.640Z,12.46
2022-10-01T09:53:52.117Z,12.50
2022-10-01T09:55:01.808Z,12.54
2022-10-01T09:56:11.908Z,12.57
2022-10-01T09:57:22.900Z,12.61
2022-10-01T09:58:27.863Z,12.64
2022-10-01T10:00:11.139Z,12.68
2022-10-01T10:01:45.728Z,12.73
2022-10-01T10:02:54.145Z,12.78
2022-10-01T10:03:58.163Z,12.81
2022-10-01T10:05:01.068Z,12.85
2022-10-01T10:06:05.936Z,12.88
2022-10-01T10:07:08.259Z,12.91
2022-10-01T10:08:10.437Z,12.95
2022-10-01T10:09:25.595Z,12.97
2022-10-01T10:10:35.769Z,13.01
2022-10-01T10:11:42.861Z,13.05
2022-10-01T10:12:46.104Z,13.07
2022-10-01T10:14:18.211Z,13.09
2022-10-01T10:15:23.167Z,13.12
2022-10-01T10:16:37.524Z,13.13
2022-10-01T10:17:44.390Z,13.16
2022-10-01T10:18:49.257Z,13.18
2022-10-01T10:19:52.765Z,13.20
2022-10-01T10:20:56.359Z,13.23
2022-10-01T10:22:11.405Z,13.24
2022-10-01T10:23:19.894Z,13.27
2022-10-01T10:24:31.501Z,13.30
2022-10-01T10:25:33.841Z,13.32
2022-10-01T10:26:39.934Z,13.32
2022-10-01T10:27:55.457Z,13.34
2022-10-01T10:28:59.106Z,13.36
2022-10-01T10:30:24.401Z,13.37
2022-10-01T10:31:38.037Z,13.38
2022-10-01T10:32:44.131Z,13.40
2022-10-01T10:33:55.790Z,13.41
2022-10-01T10:35:06.016Z,13.42
2022-10-01T10:36:16.085Z,13.43
2022-10-01T10:37:27.239Z,13.44
2022-10-01T10:38:35.979Z,13.44
2022-10-01T10:39:41.024Z,13.45
2022-10-01T10:40:45.539Z,13.46
2022-10-01T10:41:50.087Z,13.44
2022-10-01T10:42:57.505Z,13.44
2022-10-01T10:44:08.093Z,13.43
2022-10-01T10:45:17.669Z,13.43
2022-10-01T10:46:46.410Z,13.42
2022-10-01T10:47:51.971Z,13.44
2022-10-01T10:49:04.814Z,13.43
2022-10-01T10:50:30.025Z,13.44
2022-10-01T10:51:51.011Z,13.44
2022-10-01T10:52:53.214Z,13.44
2022-10-01T10:53:55.454Z,13.43
2022-10-01T10:54:59.655Z,13.40
2022-10-01T10:56:06.479Z,13.38
2022-10-01T10:57:23.141Z,13.38
2022-10-01T10:58:33.410Z,13.37
2022-10-01T10:59:35.777Z,13.36
2022-10-01T11:00:47.781Z,13.34
2022-10-01T11:01:52.771Z,13.31
2022-10-01T11:03:01.479Z,13.32
2022-10-01T11:04:18.533Z,13.32
2022-10-01T11:05:23.252Z,13.29
2022-10-01T11:06:25.901Z,13.28
2022-10-01T11:07:29.813Z,13.23
2022-10-01T11:08:35.927Z,13.25
2022-10-01T11:09:51.177Z,13.21
2022-10-01T11:11:03.150Z,13.21
2022-10-01T11:12:23.084Z,13.19
2022-10-01T11:13:39.278Z,13.18
2022-10-01T11:15:11.186Z,13.15
2022-10-01T11:16:13.387Z,13.12
2022-10-01T11:17:33.869Z,13.14
2022-10-01T11:18:48.296Z,13.09
2022-10-01T11:20:22.394Z,13.07
2022-10-01T11:21:51.112Z,13.05
2022-10-01T11:23:28.200Z,13.03
2022-10-01T11:24:56.302Z,12.99
2022-10-01T11:26:20.415Z,12.97
2022-10-01T11:27:42.889Z,12.95
2022-10-01T11:29:09.623Z,12.92
2022-10-01T11:30:11.839Z,12.90
2022-10-01T11:31:34.270Z,12.88
2022-10-01T11:33:03.569Z,12.87
2022-10-01T11:34:32.048Z,12.85
2022-10-01T11:36:04.753Z,12.82
2022-10-01T11:37:21.650Z,12.80
2022-10-01T11:38:49.856Z,12.76
2022-10-01T11:39:56.905Z,12.73
2022-10-01T11:41:19.293Z,12.70
2022-10-01T11:42:31.887Z,12.68
2022-10-01T11:43:40.925Z,12.66
2022-10-01T11:44:50.675Z,12.66
2022-10-01T11:46:00.326Z,12.64
2022-10-01T11:47:08.780Z,12.62
2022-10-01T11:48:17.847Z,12.58
2022-10-01T11:49:48.778Z,12.56
2022-10-01T11:50:55.487Z,12.54
2022-10-01T11:52:23.782Z,12.53
2022-10-01T11:53:33.812Z,12.50
2022-10-01T11:54:52.165Z,12.49
2022-10-01T11:56:30.109Z,12.49
2022-10-01T11:57:50.880Z,12.46
2022-10-01T11:59:27.580Z,12.45
2022-10-01T12:00:31.196Z,12.42
2022-10-01T12:01:58.435Z,12.40
2022-10-01T12:03:05.757Z,12.40
2022-10-01T12:04:33.448Z,12.38
2022-10-01T12:05:35.841Z,12.36
2022-10-01T12:06:52.387Z,12.35
2022-10-01T12:08:04.415Z,12.33
2022-10-01T12:09:36.483Z,12.31
2022-10-01T12:10:50.303Z,12.29
2022-10-01T12:12:06.851Z,12.29
2022-10-01T12:13:15.962Z,12.26
2022-10-01T12:14:27.042Z,12.23
2022-10-01T12:15:55.001Z,12.23
2022-10-01T12:17:09.295Z,12.21
2022-10-01T12:18:28.772Z,12.18
2022-10-01T12:19:36.723Z,12.17
2022-10-01T12:20:49.368Z,12.16
2022-10-01T12:22:00.970Z,12.15
2022-10-01T12:23:06.089Z,12.14
2022-10-01T12:24:20.176Z,12.14
2022-10-01T12:25:29.592Z,12.13
2022-10-01T12:26:45.038Z,12.10
2022-10-01T12:28:28.535Z,12.09
2022-10-01T12:29:43.017Z,12.07
2022-10-01T12:30:57.886Z,12.05
2022-10-01T12:32:15.268Z,12.05
2022-10-01T12:33:32.759Z,12.05
2022-10-01T12:35:02.561Z,12.04
2022-10-01T12:36:39.021Z,12.02
2022-10-01T12:38:27.288Z,12.00
2022-10-01T12:39:39.090Z,11.99
2022-10-01T12:41:02.647Z,11.99
2022-10-01T12:42:25.661Z,11.97
2022-10-01T12:43:47.502Z,11.97
2022-10-01T12:45:31.754Z,11.97
2022-10-01T12:46:49.867Z,11.97
2022-10-01T12:48:08.718Z,11.96
2022-10-01T12:49:25.932Z,11.96
2022-10-01T12:50:50.414Z,11.96
2022-10-01T12:51:58.329Z,11.97
2022-10-01T12:53:19.588Z,11.97
2022-10-01T12:54:28.771Z,11.98
2022-10-01T12:55:46.305Z,11.99
2022-10-01T12:57:09.465Z,11.99
2022-10-01T12:58:37.703Z,12.01
2022-10-01T13:00:42.724Z,12.03
2022-10-01T13:02:34.804Z,12.05
2022-10-01T13:04:22.215Z,12.05
2022-10-01T13:05:56.590Z,12.06
2022-10-01T13:07:27.458Z,12.06
2022-10-01T13:10:42.182Z,12.08
2022-10-01T13:12:01.490Z,12.08
2022-10-01T13:13:16.851Z,12.08
2022-10-01T13:14:22.796Z,12.09
2022-10-01T13:15:40.515Z,12.10
2022-10-01T13:17:05.029Z,12.10
2022-10-01T13:18:25.546Z,12.10
2022-10-01T13:19:41.156Z,12.11
2022-10-01T13:21:12.290Z,12.12
2022-10-01T13:22:40.692Z,12.12
2022-10-01T13:24:32.693Z,12.12
2022-10-01T13:26:03.824Z,12.13
2022-10-01T13:28:03.252Z,12.14
2022-10-01T13:29:52.075Z,12.15
2022-10-01T13:31:11.068Z,12.15
2022-10-01T13:32:54.349Z,12.15
2022-10-01T13:35:45.251Z,12.15
2022-10-01T13:36:58.059Z,12.15
2022-10-01T13:38:17.707Z,12.12
2022-10-01T13:41:09.245Z,12.13
2022-10-01T13:42:30.140Z,12.14
2022-10-01T13:43:34.942Z,12.14
2022-10-01T13:45:03.725Z,12.13
2022-10-01T13:46:25.175Z,12.13
2022-10-01T13:48:23.116Z,12.14
2022-10-01T13:49:32.746Z,12.14
2022-10-01T13:51:08.764Z,12.14
2022-10-01T13:52:22.378Z,12.14
2022-10-01T13:53:34.307Z,12.15
2022-10-01T13:56:16.416Z,12.14
2022-10-01T13:57:38.123Z,12.14
2022-10-01T13:59:00.661Z,12.14
2022-10-01T14:00:25.853Z,12.14
2022-10-01T14:01:45.344Z,12.14
2022-10-01T14:03:07.813Z,12.14
2022-10-01T14:04:59.160Z,12.14
2022-10-01T14:06:40.435Z,12.15
2022-10-01T14:07:57.910Z,12.17
2022-10-01T14:09:09.119Z,12.16
2022-10-01T14:10:42.062Z,12.17
2022-10-01T14:12:31.067Z,12.17
2022-10-01T14:14:10.173Z,12.18
2022-10-01T14:15:44.797Z,12.18
2022-10-01T14:16:56.913Z,12.18
2022-10-01T14:18:03.633Z,12.18
2022-10-01T14:19:06.146Z,12.18
2022-10-01T14:20:11.291Z,12.19
2022-10-01T14:21:25.959Z,12.18
2022-10-01T14:22:50.629Z,12.18
2022-10-01T14:24:14.950Z,12.20
2022-10-01T14:25:40.050Z,12.20
2022-10-01T14:27:02.440Z,12.22
2022-10-01T14:28:29.578Z,12.23
2022-10-01T14:29:58.242Z,12.26
2022-10-01T14:31:27.080Z,12.29
2022-10-01T14:32:52.685Z,12.27
2022-10-01T14:33:57.801Z,12.29
2022-10-01T14:35:19.423Z,12.32
2022-10-01T14:36:32.613Z,12.31
2022-10-01T14:37:39.501Z,12.33
2022-10-01T14:38:41.838Z,12.32
2022-10-01T14:39:44.548Z,12.34
2022-10-01T14:40:49.762Z,12.37
2022-10-01T14:41:53.873Z,12.37
2022-10-01T14:43:00.742Z,12.37
2022-10-01T14:44:24.004Z,12.39
2022-10-01T14:45:29.847Z,12.39
2022-10-01T14:46:36.302Z,12.42
2022-10-01T14:47:38.861Z,12.42
2022-10-01T14:48:41.433Z,12.44
2022-10-01T14:49:43.666Z,12.46
2022-10-01T14:50:49.629Z,12.47
2022-10-01T14:51:56.630Z,12.47
2022-10-01T14:52:59.118Z,12.50
2022-10-01T14:54:01.407Z,12.51
2022-10-01T14:55:08.299Z,12.51
2022-10-01T14:56:14.168Z,12.50
2022-10-01T14:57:36.585Z,12.54
2022-10-01T14:59:04.144Z,12.56
2022-10-01T15:00:22.596Z,12.58
2022-10-01T15:01:25.755Z,12.59
2022-10-01T15:02:29.786Z,12.62
2022-10-01T15:03:40.291Z,12.63
2022-10-01T15:04:55.398Z,12.64
2022-10-01T15:06:09.536Z,12.67
2022-10-01T15:07:16.190Z,12.70
2022-10-01T15:08:23.837Z,12.70
2022-10-01T15:09:33.716Z,12.71
2022-10-01T15:10:36.173Z,12.73
2022-10-01T15:11:44.203Z,12.73
2022-10-01T15:12:50.904Z,12.77
2022-10-01T15:13:57.346Z,12.79
2022-10-01T15:14:59.582Z,12.80
2022-10-01T15:16:03.102Z,12.82
2022-10-01T15:17:16.548Z,12.84
2022-10-01T15:18:22.829Z,12.84
2022-10-01T15:19:25.127Z,12.83
2022-10-01T15:20:27.418Z,12.86